My Meet Scores
Emily Moore, CATS - MyMeetScores.com
Top100 | Top Teams | Upcoming Meets | Completed Meets | Latest | Add Scores | Help| Support | Bookmark and Share

Emily Moore, CATS
Personal Bests
LevelVault BarsBeamFloorAA
39.6008.900 9.0509.20036.200
48.4507.650 9.1508.15032.350
XG9.1509.200 9.6009.20036.200
Meet Scores
Date Meet Team Session Level Division Vault Bars Beam Floor AA
2022-04-02 2022 XG, XP, XD State Championships CATS 4 XG Jr G 8.200 53 8.275 48 8.750 17T 8.775 48T 34.000 43T
2022-02-25 2022 February Flip Invite 3-10 Xcel CATS 3 XG 13 14 yr 9.150 19T 8.700 34 9.600 8T 8.750 32 36.200 27
2022-01-15 Beauty The Beast 2022 CATS 5 XG Sr A 8.300 12T 8.975 6T 9.075 3 8.500 11 34.850 5
2021-12-17 2021 Thames Valley Christmas Classic CATS 10 XG Junior 8.600 5T 8.200 8T 9.025 2 8.725 6 34.550 4
2021-12-10 New England Invitational CATS 7 XG 13 8.000 10 9.200 5T 9.250 4 8.550 8 35.000 8
2021-11-05 Ro Carlucci Judges Cup To Go CATS 12 XG Junior A 8.700 9 8.800 3 8.500 4T 9.200 4 35.200 3
2020-03-07 Holiday Costume Cup 2020 CATS 06 4 All Ages 7.500 12 7.650 12 7.550 11 7.225 12 29.925 13
2020-02-28 2020 February Flip Invitational CATS 2 4 11 yr old 8.450 10 6.600 12 9.150 6 8.150 12 32.350 11
2020-02-15 2/15/20-2/16/20 CT FVG In house Valentine Inv CATS 5 4 Older 8.350 10T 7.350 13T 8.700 6 7.750 14 32.150 13
2020-01-24 Manhattan Classic CATS 2CP 4 Junior B 8.150 13 6.550 12 8.375 10 7.750 13 30.825 13
2020-01-17 2020 Tampa Bay Turners Invite CATS 11C 4 S11CL4G4 7.700 9 6.000 9 8.600 5 7.800 9 30.100 8
2019-12-14 2019 Holiday Classic at University of Bridgep CATS 2 4 SR 8.050 11T 5.500 12 6.900 12 6.000 12 26.450 12
2019-11-09 2019 PHS Turkey Tumble CATS 2 4 Sr B 7.550 8 5.550 10 8.500 6 7.050 9 28.650 9
2019-03-23 2019 CT Level 3 State Cup CATS 5 3 *** 9.600 8T 8.900 23T 8.950 11 8.750 36T 36.200 17T
2019-03-02 2019 Holiday Costume Cup CATS 1 3 Senior 9.300 6 8.450 4 8.500 10T 8.500 10 34.750 7
2019-02-09 2/9-2/10 CT Inhouse Valentines Invitational CATS 3 3 Older 9.200 3T 8.475 3 8.350 9 8.850 7 34.875 5
2019-01-25 Kinetic Kids Invitational 2019 CATS 1 3 Sr B 9.150 4 8.000 9T 8.900 5 8.800 7T 34.850 8
2019-01-11 New Year's Invitational CATS 1 3 Sr B 9.000 10T 8.200 13T 8.900 11 9.200 8T 35.300 13
2018-12-15 2018 Holiday Classic CATS 3 3 SR 9.050 6 8.400 10T 8.800 8 8.600 11 34.850 11
2018-12-08 American Gymnastics Invitational CATS 4 3 Sr B 8.500 6 7.900 6 9.050 8T 8.750 9T 34.200 7
2018-02-17 2/17,18/2018 CT Inhouse Valentine Invt CATS 1 3 Sr A 9.000 7T 7.800 10 7.050 8 7.400 11 31.250 10
2018-01-27 Manhattan Classic CATS 6CP 3 Junior A 9.050 3 7.700 17 7.425 16 8.100 18 32.275 16
2018-01-19 Beauty And The Beast Invitational CATS 8 3 C 9.175 4 8.300 8 8.075 12 8.200 12T 33.750 10
2017-12-15 Holiday Classic Invitational CATS 3 3 Candy Cane 9.350 1 7.550 9 7.850 11 7.000 13 31.750 10
2017-11-30 Rhode Island Invitational CATS WS1 3 junior 8.225 11 7.800 9 7.650 11 6.750 11 30.425 11
Get your scores on
a t-shirt, pin, or hoodie